sensor_id;sensor_type;location;lat;lon;timestamp;P1;durP1;ratioP1;P2;durP2;ratioP2
18793;SDS011;29610;49.022;12.114;2023-07-09T00:02:17;14.23;;;7.43;;
18793;SDS011;29610;49.022;12.114;2023-07-09T00:04:46;12.83;;;6.30;;
18793;SDS011;29610;49.022;12.114;2023-07-09T00:07:17;12.97;;;7.23;;
18793;SDS011;29610;49.022;12.114;2023-07-09T00:09:51;14.13;;;6.73;;
18793;SDS011;29610;49.022;12.114;2023-07-09T00:12:22;13.50;;;6.37;;
18793;SDS011;29610;49.022;12.114;2023-07-09T00:14:51;15.47;;;7.33;;
18793;SDS011;29610;49.022;12.114;2023-07-09T00:17:23;14.07;;;7.20;;
18793;SDS011;29610;49.022;12.114;2023-07-09T00:19:57;13.73;;;6.87;;
18793;SDS011;29610;49.022;12.114;2023-07-09T00:22:25;14.90;;;7.40;;
18793;SDS011;29610;49.022;12.114;2023-07-09T00:24:54;14.70;;;7.13;;
18793;SDS011;29610;49.022;12.114;2023-07-09T00:27:24;14.17;;;7.13;;
18793;SDS011;29610;49.022;12.114;2023-07-09T00:29:57;14.93;;;6.67;;
18793;SDS011;29610;49.022;12.114;2023-07-09T00:32:28;14.23;;;6.40;;
18793;SDS011;29610;49.022;12.114;2023-07-09T00:34:57;12.97;;;6.20;;
18793;SDS011;29610;49.022;12.114;2023-07-09T00:37:27;14.23;;;6.20;;
18793;SDS011;29610;49.022;12.114;2023-07-09T00:39:55;15.37;;;6.70;;
18793;SDS011;29610;49.022;12.114;2023-07-09T00:42:24;11.87;;;6.23;;
18793;SDS011;29610;49.022;12.114;2023-07-09T00:44:53;14.67;;;6.33;;
18793;SDS011;29610;49.022;12.114;2023-07-09T00:47:23;13.47;;;6.17;;
18793;SDS011;29610;49.022;12.114;2023-07-09T00:50:10;13.77;;;6.87;;
18793;SDS011;29610;49.022;12.114;2023-07-09T00:53:01;17.30;;;7.10;;
18793;SDS011;29610;49.022;12.114;2023-07-09T00:55:38;17.10;;;7.90;;
18793;SDS011;29610;49.022;12.114;2023-07-09T00:58:12;13.63;;;7.30;;
18793;SDS011;29610;49.022;12.114;2023-07-09T01:00:45;13.57;;;6.50;;
18793;SDS011;29610;49.022;12.114;2023-07-09T01:03:21;16.43;;;7.00;;
18793;SDS011;29610;49.022;12.114;2023-07-09T01:05:56;16.03;;;7.17;;
18793;SDS011;29610;49.022;12.114;2023-07-09T01:08:26;14.63;;;6.67;;
18793;SDS011;29610;49.022;12.114;2023-07-09T01:10:59;14.50;;;7.00;;
18793;SDS011;29610;49.022;12.114;2023-07-09T01:13:28;15.03;;;7.57;;
18793;SDS011;29610;49.022;12.114;2023-07-09T01:16:01;15.73;;;8.30;;
18793;SDS011;29610;49.022;12.114;2023-07-09T01:18:35;14.60;;;7.40;;
18793;SDS011;29610;49.022;12.114;2023-07-09T01:21:08;12.30;;;6.20;;
18793;SDS011;29610;49.022;12.114;2023-07-09T01:23:42;15.70;;;7.43;;
18793;SDS011;29610;49.022;12.114;2023-07-09T01:26:11;13.23;;;7.00;;
18793;SDS011;29610;49.022;12.114;2023-07-09T01:28:43;14.47;;;7.57;;
18793;SDS011;29610;49.022;12.114;2023-07-09T01:31:13;15.93;;;7.10;;
18793;SDS011;29610;49.022;12.114;2023-07-09T01:33:43;13.67;;;7.03;;
18793;SDS011;29610;49.022;12.114;2023-07-09T01:36:14;13.60;;;7.10;;
18793;SDS011;29610;49.022;12.114;2023-07-09T01:38:49;16.57;;;7.57;;
18793;SDS011;29610;49.022;12.114;2023-07-09T01:41:19;16.23;;;7.57;;
18793;SDS011;29610;49.022;12.114;2023-07-09T01:43:50;15.17;;;7.30;;
18793;SDS011;29610;49.022;12.114;2023-07-09T01:46:19;14.93;;;7.50;;
18793;SDS011;29610;49.022;12.114;2023-07-09T01:48:48;16.83;;;8.73;;
18793;SDS011;29610;49.022;12.114;2023-07-09T01:51:20;13.50;;;6.93;;
18793;SDS011;29610;49.022;12.114;2023-07-09T01:53:50;14.10;;;7.43;;
18793;SDS011;29610;49.022;12.114;2023-07-09T01:56:20;13.70;;;7.27;;
18793;SDS011;29610;49.022;12.114;2023-07-09T01:58:51;13.23;;;6.93;;
18793;SDS011;29610;49.022;12.114;2023-07-09T02:01:19;15.83;;;7.40;;
18793;SDS011;29610;49.022;12.114;2023-07-09T02:03:47;15.27;;;7.30;;
18793;SDS011;29610;49.022;12.114;2023-07-09T02:06:16;13.83;;;7.07;;
18793;SDS011;29610;49.022;12.114;2023-07-09T02:08:47;16.27;;;8.20;;
18793;SDS011;29610;49.022;12.114;2023-07-09T02:11:16;15.60;;;7.80;;
18793;SDS011;29610;49.022;12.114;2023-07-09T02:13:44;14.93;;;7.30;;
18793;SDS011;29610;49.022;12.114;2023-07-09T02:16:13;17.07;;;7.80;;
18793;SDS011;29610;49.022;12.114;2023-07-09T02:18:41;17.90;;;7.40;;
18793;SDS011;29610;49.022;12.114;2023-07-09T02:21:10;12.77;;;6.77;;
18793;SDS011;29610;49.022;12.114;2023-07-09T02:23:38;15.90;;;7.27;;
18793;SDS011;29610;49.022;12.114;2023-07-09T02:26:08;13.90;;;6.50;;
18793;SDS011;29610;49.022;12.114;2023-07-09T02:28:37;11.80;;;6.20;;
18793;SDS011;29610;49.022;12.114;2023-07-09T02:31:06;17.83;;;7.13;;
18793;SDS011;29610;49.022;12.114;2023-07-09T02:33:35;15.43;;;7.40;;
18793;SDS011;29610;49.022;12.114;2023-07-09T02:36:04;14.63;;;6.90;;
18793;SDS011;29610;49.022;12.114;2023-07-09T02:38:33;13.83;;;6.50;;
18793;SDS011;29610;49.022;12.114;2023-07-09T02:41:02;13.50;;;6.97;;
18793;SDS011;29610;49.022;12.114;2023-07-09T02:43:33;14.00;;;6.80;;
18793;SDS011;29610;49.022;12.114;2023-07-09T02:46:01;14.37;;;7.00;;
18793;SDS011;29610;49.022;12.114;2023-07-09T02:48:30;15.00;;;7.50;;
18793;SDS011;29610;49.022;12.114;2023-07-09T02:50:59;13.17;;;7.03;;
18793;SDS011;29610;49.022;12.114;2023-07-09T02:53:27;13.40;;;6.83;;
18793;SDS011;29610;49.022;12.114;2023-07-09T02:55:56;14.37;;;7.50;;
18793;SDS011;29610;49.022;12.114;2023-07-09T02:58:24;15.33;;;7.90;;
18793;SDS011;29610;49.022;12.114;2023-07-09T03:00:56;16.47;;;8.33;;
18793;SDS011;29610;49.022;12.114;2023-07-09T03:03:25;15.17;;;7.00;;
18793;SDS011;29610;49.022;12.114;2023-07-09T03:05:55;14.33;;;7.00;;
18793;SDS011;29610;49.022;12.114;2023-07-09T03:08:23;15.80;;;8.20;;
18793;SDS011;29610;49.022;12.114;2023-07-09T03:10:52;14.97;;;7.63;;
18793;SDS011;29610;49.022;12.114;2023-07-09T03:13:20;14.33;;;7.50;;
18793;SDS011;29610;49.022;12.114;2023-07-09T03:15:57;15.40;;;7.37;;
18793;SDS011;29610;49.022;12.114;2023-07-09T03:18:26;15.53;;;7.67;;
18793;SDS011;29610;49.022;12.114;2023-07-09T03:20:54;16.37;;;8.97;;
18793;SDS011;29610;49.022;12.114;2023-07-09T03:23:23;16.40;;;8.17;;
18793;SDS011;29610;49.022;12.114;2023-07-09T03:25:51;17.90;;;8.03;;
18793;SDS011;29610;49.022;12.114;2023-07-09T03:28:20;14.40;;;8.23;;
18793;SDS011;29610;49.022;12.114;2023-07-09T03:30:49;14.30;;;7.57;;
18793;SDS011;29610;49.022;12.114;2023-07-09T03:33:23;16.90;;;8.00;;
18793;SDS011;29610;49.022;12.114;2023-07-09T03:35:53;14.73;;;7.80;;
18793;SDS011;29610;49.022;12.114;2023-07-09T03:38:21;14.93;;;7.93;;
18793;SDS011;29610;49.022;12.114;2023-07-09T03:40:51;18.17;;;9.37;;
18793;SDS011;29610;49.022;12.114;2023-07-09T03:43:25;15.33;;;8.40;;
18793;SDS011;29610;49.022;12.114;2023-07-09T03:45:53;14.67;;;8.13;;
18793;SDS011;29610;49.022;12.114;2023-07-09T03:48:23;21.10;;;8.23;;
18793;SDS011;29610;49.022;12.114;2023-07-09T03:50:52;13.80;;;8.07;;
18793;SDS011;29610;49.022;12.114;2023-07-09T03:53:20;15.33;;;8.73;;
18793;SDS011;29610;49.022;12.114;2023-07-09T03:55:51;15.33;;;9.30;;
18793;SDS011;29610;49.022;12.114;2023-07-09T03:58:21;16.50;;;8.17;;
18793;SDS011;29610;49.022;12.114;2023-07-09T04:00:51;15.17;;;8.10;;
18793;SDS011;29610;49.022;12.114;2023-07-09T04:03:21;14.40;;;7.93;;
18793;SDS011;29610;49.022;12.114;2023-07-09T04:05:55;13.30;;;7.27;;
18793;SDS011;29610;49.022;12.114;2023-07-09T04:08:23;14.87;;;7.73;;
18793;SDS011;29610;49.022;12.114;2023-07-09T04:10:58;16.80;;;8.33;;
18793;SDS011;29610;49.022;12.114;2023-07-09T04:13:30;14.53;;;7.50;;
18793;SDS011;29610;49.022;12.114;2023-07-09T04:15:59;12.30;;;6.97;;
18793;SDS011;29610;49.022;12.114;2023-07-09T04:18:30;17.33;;;6.80;;
18793;SDS011;29610;49.022;12.114;2023-07-09T04:20:59;17.30;;;7.50;;
18793;SDS011;29610;49.022;12.114;2023-07-09T04:23:27;15.20;;;7.23;;
18793;SDS011;29610;49.022;12.114;2023-07-09T04:25:56;14.87;;;7.27;;
18793;SDS011;29610;49.022;12.114;2023-07-09T04:28:25;15.27;;;7.30;;
18793;SDS011;29610;49.022;12.114;2023-07-09T04:30:53;14.40;;;8.00;;
18793;SDS011;29610;49.022;12.114;2023-07-09T04:33:22;14.50;;;7.37;;
18793;SDS011;29610;49.022;12.114;2023-07-09T04:35:52;18.03;;;7.57;;
18793;SDS011;29610;49.022;12.114;2023-07-09T04:38:20;15.13;;;7.40;;
18793;SDS011;29610;49.022;12.114;2023-07-09T04:40:49;12.73;;;6.70;;
18793;SDS011;29610;49.022;12.114;2023-07-09T04:43:17;16.07;;;6.87;;
18793;SDS011;29610;49.022;12.114;2023-07-09T04:45:46;13.83;;;6.47;;
18793;SDS011;29610;49.022;12.114;2023-07-09T04:48:15;14.90;;;7.50;;
18793;SDS011;29610;49.022;12.114;2023-07-09T04:50:43;13.33;;;6.77;;
18793;SDS011;29610;49.022;12.114;2023-07-09T04:53:17;12.43;;;6.07;;
18793;SDS011;29610;49.022;12.114;2023-07-09T04:55:50;12.53;;;6.20;;
18793;SDS011;29610;49.022;12.114;2023-07-09T04:58:19;16.80;;;6.90;;
18793;SDS011;29610;49.022;12.114;2023-07-09T05:00:47;13.80;;;6.30;;
18793;SDS011;29610;49.022;12.114;2023-07-09T05:03:17;14.60;;;6.50;;
18793;SDS011;29610;49.022;12.114;2023-07-09T05:05:46;13.40;;;6.90;;
18793;SDS011;29610;49.022;12.114;2023-07-09T05:08:15;13.20;;;6.77;;
18793;SDS011;29610;49.022;12.114;2023-07-09T05:10:46;16.13;;;6.20;;
18793;SDS011;29610;49.022;12.114;2023-07-09T05:13:18;14.17;;;7.30;;
18793;SDS011;29610;49.022;12.114;2023-07-09T05:15:47;17.00;;;9.73;;
18793;SDS011;29610;49.022;12.114;2023-07-09T05:18:17;13.87;;;6.73;;
18793;SDS011;29610;49.022;12.114;2023-07-09T05:20:46;16.90;;;7.33;;
18793;SDS011;29610;49.022;12.114;2023-07-09T05:23:15;13.03;;;6.93;;
18793;SDS011;29610;49.022;12.114;2023-07-09T05:25:45;13.17;;;6.40;;
18793;SDS011;29610;49.022;12.114;2023-07-09T05:28:13;13.77;;;6.80;;
18793;SDS011;29610;49.022;12.114;2023-07-09T05:30:42;16.17;;;7.60;;
18793;SDS011;29610;49.022;12.114;2023-07-09T05:33:10;14.63;;;7.63;;
18793;SDS011;29610;49.022;12.114;2023-07-09T05:35:39;16.70;;;7.90;;
18793;SDS011;29610;49.022;12.114;2023-07-09T05:38:10;14.13;;;6.93;;
18793;SDS011;29610;49.022;12.114;2023-07-09T05:40:40;13.70;;;7.30;;
18793;SDS011;29610;49.022;12.114;2023-07-09T05:43:09;14.63;;;8.20;;
18793;SDS011;29610;49.022;12.114;2023-07-09T05:45:38;13.80;;;7.93;;
18793;SDS011;29610;49.022;12.114;2023-07-09T05:48:07;14.67;;;8.40;;
18793;SDS011;29610;49.022;12.114;2023-07-09T05:50:35;13.50;;;7.00;;
18793;SDS011;29610;49.022;12.114;2023-07-09T05:53:04;18.87;;;7.87;;
18793;SDS011;29610;49.022;12.114;2023-07-09T05:55:32;13.70;;;7.37;;
18793;SDS011;29610;49.022;12.114;2023-07-09T05:58:02;13.83;;;6.77;;
18793;SDS011;29610;49.022;12.114;2023-07-09T06:00:31;16.00;;;8.33;;
18793;SDS011;29610;49.022;12.114;2023-07-09T06:02:59;14.17;;;6.90;;
18793;SDS011;29610;49.022;12.114;2023-07-09T06:05:29;14.83;;;7.10;;
18793;SDS011;29610;49.022;12.114;2023-07-09T06:07:58;12.93;;;6.70;;
18793;SDS011;29610;49.022;12.114;2023-07-09T06:10:26;15.70;;;6.73;;
18793;SDS011;29610;49.022;12.114;2023-07-09T06:12:55;13.93;;;7.37;;
18793;SDS011;29610;49.022;12.114;2023-07-09T06:15:26;16.23;;;7.43;;
18793;SDS011;29610;49.022;12.114;2023-07-09T06:17:54;14.50;;;7.20;;
18793;SDS011;29610;49.022;12.114;2023-07-09T06:20:23;12.93;;;6.63;;
18793;SDS011;29610;49.022;12.114;2023-07-09T06:22:51;17.77;;;7.70;;
18793;SDS011;29610;49.022;12.114;2023-07-09T06:25:19;14.90;;;6.97;;
18793;SDS011;29610;49.022;12.114;2023-07-09T06:27:48;13.20;;;7.13;;
18793;SDS011;29610;49.022;12.114;2023-07-09T06:30:16;14.33;;;6.80;;
18793;SDS011;29610;49.022;12.114;2023-07-09T06:32:47;13.70;;;6.70;;
18793;SDS011;29610;49.022;12.114;2023-07-09T06:35:16;12.90;;;6.63;;
18793;SDS011;29610;49.022;12.114;2023-07-09T06:37:44;13.03;;;6.30;;
18793;SDS011;29610;49.022;12.114;2023-07-09T06:40:13;13.90;;;7.20;;
18793;SDS011;29610;49.022;12.114;2023-07-09T06:42:41;17.13;;;6.87;;
18793;SDS011;29610;49.022;12.114;2023-07-09T06:45:19;14.70;;;7.03;;
18793;SDS011;29610;49.022;12.114;2023-07-09T06:47:49;17.30;;;7.77;;
18793;SDS011;29610;49.022;12.114;2023-07-09T06:50:18;13.10;;;6.63;;
18793;SDS011;29610;49.022;12.114;2023-07-09T06:52:47;18.97;;;7.20;;
18793;SDS011;29610;49.022;12.114;2023-07-09T06:55:15;13.80;;;6.47;;
18793;SDS011;29610;49.022;12.114;2023-07-09T06:57:44;13.07;;;6.37;;
18793;SDS011;29610;49.022;12.114;2023-07-09T07:00:13;19.30;;;6.40;;
18793;SDS011;29610;49.022;12.114;2023-07-09T07:02:42;14.50;;;6.53;;
18793;SDS011;29610;49.022;12.114;2023-07-09T07:05:12;13.90;;;6.20;;
18793;SDS011;29610;49.022;12.114;2023-07-09T07:07:40;13.50;;;6.30;;
18793;SDS011;29610;49.022;12.114;2023-07-09T07:10:09;13.63;;;5.90;;
18793;SDS011;29610;49.022;12.114;2023-07-09T07:12:41;11.57;;;5.27;;
18793;SDS011;29610;49.022;12.114;2023-07-09T07:15:13;13.83;;;6.00;;
18793;SDS011;29610;49.022;12.114;2023-07-09T07:17:44;13.57;;;6.43;;
18793;SDS011;29610;49.022;12.114;2023-07-09T07:20:15;11.97;;;6.07;;
18793;SDS011;29610;49.022;12.114;2023-07-09T07:22:44;13.50;;;5.83;;
18793;SDS011;29610;49.022;12.114;2023-07-09T07:25:13;13.40;;;6.37;;
18793;SDS011;29610;49.022;12.114;2023-07-09T07:27:41;17.13;;;5.57;;
18793;SDS011;29610;49.022;12.114;2023-07-09T07:30:10;16.10;;;7.40;;
18793;SDS011;29610;49.022;12.114;2023-07-09T07:32:42;12.30;;;6.13;;
18793;SDS011;29610;49.022;12.114;2023-07-09T07:35:14;14.30;;;5.50;;
18793;SDS011;29610;49.022;12.114;2023-07-09T07:37:44;13.50;;;5.90;;
18793;SDS011;29610;49.022;12.114;2023-07-09T07:40:13;13.60;;;6.87;;
18793;SDS011;29610;49.022;12.114;2023-07-09T07:42:42;12.23;;;6.00;;
18793;SDS011;29610;49.022;12.114;2023-07-09T07:45:10;15.10;;;5.27;;
18793;SDS011;29610;49.022;12.114;2023-07-09T07:47:39;14.73;;;5.53;;
18793;SDS011;29610;49.022;12.114;2023-07-09T07:50:08;19.03;;;6.60;;
18793;SDS011;29610;49.022;12.114;2023-07-09T07:52:39;13.10;;;5.80;;
18793;SDS011;29610;49.022;12.114;2023-07-09T07:55:07;11.03;;;5.10;;
18793;SDS011;29610;49.022;12.114;2023-07-09T07:57:43;13.20;;;5.60;;
18793;SDS011;29610;49.022;12.114;2023-07-09T08:00:12;13.27;;;6.03;;
18793;SDS011;29610;49.022;12.114;2023-07-09T08:02:42;11.70;;;5.37;;
18793;SDS011;29610;49.022;12.114;2023-07-09T08:05:11;13.00;;;5.57;;
18793;SDS011;29610;49.022;12.114;2023-07-09T08:07:40;12.87;;;5.30;;
18793;SDS011;29610;49.022;12.114;2023-07-09T08:10:10;10.10;;;4.93;;
18793;SDS011;29610;49.022;12.114;2023-07-09T08:12:41;14.50;;;7.43;;
18793;SDS011;29610;49.022;12.114;2023-07-09T08:15:10;13.87;;;5.47;;
18793;SDS011;29610;49.022;12.114;2023-07-09T08:17:39;12.80;;;6.27;;
18793;SDS011;29610;49.022;12.114;2023-07-09T08:20:08;11.63;;;5.37;;
18793;SDS011;29610;49.022;12.114;2023-07-09T08:22:37;11.93;;;5.63;;
18793;SDS011;29610;49.022;12.114;2023-07-09T08:25:08;14.40;;;5.90;;
18793;SDS011;29610;49.022;12.114;2023-07-09T08:27:36;16.67;;;5.83;;
18793;SDS011;29610;49.022;12.114;2023-07-09T08:30:05;11.77;;;4.70;;
18793;SDS011;29610;49.022;12.114;2023-07-09T08:32:35;11.63;;;5.73;;
18793;SDS011;29610;49.022;12.114;2023-07-09T08:35:04;11.60;;;5.00;;
18793;SDS011;29610;49.022;12.114;2023-07-09T08:37:37;12.13;;;5.50;;
18793;SDS011;29610;49.022;12.114;2023-07-09T08:42:45;14.17;;;5.90;;
18793;SDS011;29610;49.022;12.114;2023-07-09T08:45:30;11.43;;;5.70;;
18793;SDS011;29610;49.022;12.114;2023-07-09T08:48:17;10.60;;;4.73;;
18793;SDS011;29610;49.022;12.114;2023-07-09T08:50:54;12.03;;;5.23;;
18793;SDS011;29610;49.022;12.114;2023-07-09T08:53:30;11.77;;;4.83;;
18793;SDS011;29610;49.022;12.114;2023-07-09T08:56:16;13.20;;;5.57;;
18793;SDS011;29610;49.022;12.114;2023-07-09T08:58:46;12.70;;;4.97;;
18793;SDS011;29610;49.022;12.114;2023-07-09T09:01:18;10.70;;;5.10;;
18793;SDS011;29610;49.022;12.114;2023-07-09T09:03:58;11.93;;;5.30;;
18793;SDS011;29610;49.022;12.114;2023-07-09T09:06:34;11.57;;;5.03;;
18793;SDS011;29610;49.022;12.114;2023-07-09T09:09:03;10.57;;;4.90;;
18793;SDS011;29610;49.022;12.114;2023-07-09T09:11:45;10.37;;;5.23;;
18793;SDS011;29610;49.022;12.114;2023-07-09T09:14:26;10.13;;;4.77;;
18793;SDS011;29610;49.022;12.114;2023-07-09T09:17:00;8.80;;;3.97;;
18793;SDS011;29610;49.022;12.114;2023-07-09T09:19:33;11.87;;;4.57;;
18793;SDS011;29610;49.022;12.114;2023-07-09T09:22:11;12.93;;;4.37;;
18793;SDS011;29610;49.022;12.114;2023-07-09T09:24:46;12.20;;;4.97;;
18793;SDS011;29610;49.022;12.114;2023-07-09T09:27:27;10.77;;;4.53;;
18793;SDS011;29610;49.022;12.114;2023-07-09T09:29:55;11.80;;;5.00;;
18793;SDS011;29610;49.022;12.114;2023-07-09T09:32:25;10.60;;;4.97;;
18793;SDS011;29610;49.022;12.114;2023-07-09T09:34:55;13.40;;;5.13;;
18793;SDS011;29610;49.022;12.114;2023-07-09T09:37:26;12.73;;;4.90;;
18793;SDS011;29610;49.022;12.114;2023-07-09T09:39:58;12.37;;;4.63;;
18793;SDS011;29610;49.022;12.114;2023-07-09T09:42:45;9.70;;;4.67;;
18793;SDS011;29610;49.022;12.114;2023-07-09T09:45:15;9.13;;;4.43;;
18793;SDS011;29610;49.022;12.114;2023-07-09T09:47:47;10.23;;;4.17;;
18793;SDS011;29610;49.022;12.114;2023-07-09T09:50:17;11.53;;;4.20;;
18793;SDS011;29610;49.022;12.114;2023-07-09T09:52:48;15.87;;;4.73;;
18793;SDS011;29610;49.022;12.114;2023-07-09T09:55:18;8.77;;;3.93;;
18793;SDS011;29610;49.022;12.114;2023-07-09T09:57:52;10.60;;;4.47;;
18793;SDS011;29610;49.022;12.114;2023-07-09T10:00:22;9.60;;;3.90;;
18793;SDS011;29610;49.022;12.114;2023-07-09T10:06:18;10.53;;;4.43;;
18793;SDS011;29610;49.022;12.114;2023-07-09T10:09:02;10.00;;;4.50;;
18793;SDS011;29610;49.022;12.114;2023-07-09T10:11:47;9.90;;;4.03;;
18793;SDS011;29610;49.022;12.114;2023-07-09T10:14:28;9.10;;;3.53;;
18793;SDS011;29610;49.022;12.114;2023-07-09T10:17:05;8.00;;;3.70;;
18793;SDS011;29610;49.022;12.114;2023-07-09T10:19:48;8.77;;;3.70;;
18793;SDS011;29610;49.022;12.114;2023-07-09T10:22:36;9.20;;;3.70;;
18793;SDS011;29610;49.022;12.114;2023-07-09T10:25:18;8.57;;;3.53;;
18793;SDS011;29610;49.022;12.114;2023-07-09T10:28:07;9.57;;;4.17;;
18793;SDS011;29610;49.022;12.114;2023-07-09T10:31:07;10.17;;;3.80;;
18793;SDS011;29610;49.022;12.114;2023-07-09T10:33:52;9.60;;;4.00;;
18793;SDS011;29610;49.022;12.114;2023-07-09T10:36:37;9.00;;;3.80;;
18793;SDS011;29610;49.022;12.114;2023-07-09T10:39:29;11.63;;;4.70;;
18793;SDS011;29610;49.022;12.114;2023-07-09T10:42:06;10.00;;;3.70;;
18793;SDS011;29610;49.022;12.114;2023-07-09T10:44:52;8.80;;;3.77;;
18793;SDS011;29610;49.022;12.114;2023-07-09T10:47:30;8.73;;;3.60;;
18793;SDS011;29610;49.022;12.114;2023-07-09T10:50:05;9.53;;;3.40;;
18793;SDS011;29610;49.022;12.114;2023-07-09T10:52:44;8.60;;;3.50;;
18793;SDS011;29610;49.022;12.114;2023-07-09T10:55:21;9.90;;;3.90;;
18793;SDS011;29610;49.022;12.114;2023-07-09T10:57:58;7.83;;;3.13;;
18793;SDS011;29610;49.022;12.114;2023-07-09T11:00:33;8.10;;;3.60;;
18793;SDS011;29610;49.022;12.114;2023-07-09T11:03:09;8.90;;;3.87;;
18793;SDS011;29610;49.022;12.114;2023-07-09T11:05:46;7.30;;;3.33;;
18793;SDS011;29610;49.022;12.114;2023-07-09T11:08:18;16.90;;;3.80;;
18793;SDS011;29610;49.022;12.114;2023-07-09T11:10:59;14.60;;;4.00;;
18793;SDS011;29610;49.022;12.114;2023-07-09T11:13:35;10.43;;;3.37;;
18793;SDS011;29610;49.022;12.114;2023-07-09T11:16:20;7.27;;;3.30;;
18793;SDS011;29610;49.022;12.114;2023-07-09T11:18:58;7.30;;;2.90;;
18793;SDS011;29610;49.022;12.114;2023-07-09T11:21:29;8.63;;;3.30;;
18793;SDS011;29610;49.022;12.114;2023-07-09T11:23:58;7.63;;;3.10;;
18793;SDS011;29610;49.022;12.114;2023-07-09T11:26:29;9.93;;;3.80;;
18793;SDS011;29610;49.022;12.114;2023-07-09T11:29:11;8.30;;;3.40;;
18793;SDS011;29610;49.022;12.114;2023-07-09T11:31:44;13.90;;;5.57;;
18793;SDS011;29610;49.022;12.114;2023-07-09T11:34:18;8.90;;;4.10;;
18793;SDS011;29610;49.022;12.114;2023-07-09T11:36:49;9.43;;;4.00;;
18793;SDS011;29610;49.022;12.114;2023-07-09T11:39:27;9.10;;;3.70;;
18793;SDS011;29610;49.022;12.114;2023-07-09T11:41:58;9.93;;;3.50;;
18793;SDS011;29610;49.022;12.114;2023-07-09T11:44:28;6.90;;;3.10;;
18793;SDS011;29610;49.022;12.114;2023-07-09T11:47:17;7.53;;;3.30;;
18793;SDS011;29610;49.022;12.114;2023-07-09T11:49:53;8.83;;;3.50;;
18793;SDS011;29610;49.022;12.114;2023-07-09T11:52:27;7.63;;;3.47;;
18793;SDS011;29610;49.022;12.114;2023-07-09T11:55:05;10.00;;;5.60;;
18793;SDS011;29610;49.022;12.114;2023-07-09T11:57:53;10.93;;;5.77;;
18793;SDS011;29610;49.022;12.114;2023-07-09T12:00:24;7.63;;;3.67;;
18793;SDS011;29610;49.022;12.114;2023-07-09T12:02:57;13.23;;;7.20;;
18793;SDS011;29610;49.022;12.114;2023-07-09T12:05:28;8.60;;;3.37;;
18793;SDS011;29610;49.022;12.114;2023-07-09T12:07:58;11.13;;;4.00;;
18793;SDS011;29610;49.022;12.114;2023-07-09T12:10:28;12.10;;;3.80;;
18793;SDS011;29610;49.022;12.114;2023-07-09T12:13:03;17.20;;;11.50;;
18793;SDS011;29610;49.022;12.114;2023-07-09T12:15:32;8.03;;;4.60;;
18793;SDS011;29610;49.022;12.114;2023-07-09T12:18:02;17.70;;;11.07;;
18793;SDS011;29610;49.022;12.114;2023-07-09T12:20:40;32.30;;;26.90;;
18793;SDS011;29610;49.022;12.114;2023-07-09T12:23:17;9.13;;;4.93;;
18793;SDS011;29610;49.022;12.114;2023-07-09T12:25:53;10.47;;;5.20;;
18793;SDS011;29610;49.022;12.114;2023-07-09T12:28:22;6.60;;;2.80;;
18793;SDS011;29610;49.022;12.114;2023-07-09T12:30:51;6.73;;;2.80;;
18793;SDS011;29610;49.022;12.114;2023-07-09T12:33:21;13.20;;;3.40;;
18793;SDS011;29610;49.022;12.114;2023-07-09T12:35:55;10.53;;;3.60;;
18793;SDS011;29610;49.022;12.114;2023-07-09T12:38:27;19.13;;;14.30;;
18793;SDS011;29610;49.022;12.114;2023-07-09T12:41:02;16.50;;;10.77;;
18793;SDS011;29610;49.022;12.114;2023-07-09T12:43:32;16.10;;;9.70;;
18793;SDS011;29610;49.022;12.114;2023-07-09T12:46:01;7.93;;;3.20;;
18793;SDS011;29610;49.022;12.114;2023-07-09T12:48:30;10.17;;;5.50;;
18793;SDS011;29610;49.022;12.114;2023-07-09T12:51:01;9.30;;;3.80;;
18793;SDS011;29610;49.022;12.114;2023-07-09T12:53:36;8.23;;;3.23;;
18793;SDS011;29610;49.022;12.114;2023-07-09T12:56:10;8.90;;;4.30;;
18793;SDS011;29610;49.022;12.114;2023-07-09T12:58:43;7.70;;;3.70;;
18793;SDS011;29610;49.022;12.114;2023-07-09T13:01:14;10.70;;;4.50;;
18793;SDS011;29610;49.022;12.114;2023-07-09T13:03:51;7.80;;;3.60;;
18793;SDS011;29610;49.022;12.114;2023-07-09T13:06:28;8.93;;;3.10;;
18793;SDS011;29610;49.022;12.114;2023-07-09T13:09:03;9.30;;;3.63;;
18793;SDS011;29610;49.022;12.114;2023-07-09T13:11:46;8.17;;;3.43;;
18793;SDS011;29610;49.022;12.114;2023-07-09T13:14:16;7.27;;;3.17;;
18793;SDS011;29610;49.022;12.114;2023-07-09T13:16:49;7.20;;;2.87;;
18793;SDS011;29610;49.022;12.114;2023-07-09T13:19:18;9.13;;;3.47;;
18793;SDS011;29610;49.022;12.114;2023-07-09T13:21:48;8.30;;;3.20;;
18793;SDS011;29610;49.022;12.114;2023-07-09T13:24:20;10.13;;;4.40;;
18793;SDS011;29610;49.022;12.114;2023-07-09T13:26:52;8.37;;;3.37;;
18793;SDS011;29610;49.022;12.114;2023-07-09T13:29:21;9.23;;;4.40;;
18793;SDS011;29610;49.022;12.114;2023-07-09T13:31:49;8.00;;;2.90;;
18793;SDS011;29610;49.022;12.114;2023-07-09T13:34:20;7.70;;;3.33;;
18793;SDS011;29610;49.022;12.114;2023-07-09T13:36:54;10.13;;;3.20;;
18793;SDS011;29610;49.022;12.114;2023-07-09T13:39:23;8.10;;;3.50;;
18793;SDS011;29610;49.022;12.114;2023-07-09T13:41:54;8.30;;;3.40;;
18793;SDS011;29610;49.022;12.114;2023-07-09T13:44:25;7.00;;;2.90;;
18793;SDS011;29610;49.022;12.114;2023-07-09T13:46:57;6.80;;;2.80;;
18793;SDS011;29610;49.022;12.114;2023-07-09T13:49:26;7.50;;;3.33;;
18793;SDS011;29610;49.022;12.114;2023-07-09T13:51:58;9.17;;;3.47;;
18793;SDS011;29610;49.022;12.114;2023-07-09T13:54:28;8.07;;;3.57;;
18793;SDS011;29610;49.022;12.114;2023-07-09T13:57:03;9.13;;;3.63;;
18793;SDS011;29610;49.022;12.114;2023-07-09T13:59:34;7.57;;;3.60;;
18793;SDS011;29610;49.022;12.114;2023-07-09T14:02:07;8.07;;;3.17;;
18793;SDS011;29610;49.022;12.114;2023-07-09T14:04:54;8.90;;;2.87;;
18793;SDS011;29610;49.022;12.114;2023-07-09T14:07:28;8.53;;;3.20;;
18793;SDS011;29610;49.022;12.114;2023-07-09T14:09:59;7.87;;;3.30;;
18793;SDS011;29610;49.022;12.114;2023-07-09T14:12:28;7.77;;;3.50;;
18793;SDS011;29610;49.022;12.114;2023-07-09T14:14:58;7.60;;;3.10;;
18793;SDS011;29610;49.022;12.114;2023-07-09T14:17:30;6.50;;;3.07;;
18793;SDS011;29610;49.022;12.114;2023-07-09T14:19:58;7.93;;;3.47;;
18793;SDS011;29610;49.022;12.114;2023-07-09T14:22:30;7.93;;;3.03;;
18793;SDS011;29610;49.022;12.114;2023-07-09T14:25:02;10.73;;;3.67;;
18793;SDS011;29610;49.022;12.114;2023-07-09T14:27:40;8.50;;;3.20;;
18793;SDS011;29610;49.022;12.114;2023-07-09T14:30:10;7.90;;;3.40;;
18793;SDS011;29610;49.022;12.114;2023-07-09T14:32:43;9.93;;;3.17;;
18793;SDS011;29610;49.022;12.114;2023-07-09T14:35:15;9.10;;;3.73;;
18793;SDS011;29610;49.022;12.114;2023-07-09T14:37:48;8.13;;;3.03;;
18793;SDS011;29610;49.022;12.114;2023-07-09T14:40:21;11.30;;;3.60;;
18793;SDS011;29610;49.022;12.114;2023-07-09T14:42:50;9.87;;;4.00;;
18793;SDS011;29610;49.022;12.114;2023-07-09T14:45:19;8.20;;;3.33;;
18793;SDS011;29610;49.022;12.114;2023-07-09T14:47:50;9.17;;;3.40;;
18793;SDS011;29610;49.022;12.114;2023-07-09T14:50:21;9.40;;;3.80;;
18793;SDS011;29610;49.022;12.114;2023-07-09T14:52:53;8.60;;;3.50;;
18793;SDS011;29610;49.022;12.114;2023-07-09T14:55:22;12.10;;;4.37;;
18793;SDS011;29610;49.022;12.114;2023-07-09T14:57:51;8.93;;;4.00;;